Whetstone, United Kingdom
Current Conditions -  °F | °C
As of 1:50 PM on Wednesday 26 Nov 2014 (Local Time) from EGWU Reporting Station
Haze Haze  
Wind Chill:   Ceiling: 200
Heat Index:   Visibility: 1.5mi
Dew Point:   Wind: 1mph
Humidity: 100%   Direction: 40°NE
Pressure: 29.83"   Gusts: NA
Location:  51.63°N, 0.16°W
Report Text: EGWU 261350Z 04001KT 2500 BR BKN002 OVC003 09/09 Q1010 TEMPO 1500 -DZ SCT001
Loading
Personal Weather Stations






























Interactive Weather Map New forecast layout! Learn more

10-Day Weather Forecast

Advertisements
Track Severe Weather on mobile